createdAt,value
2019-06-01T00:06:13.729Z,67.6
2019-06-01T00:22:57.067Z,68.4
2019-06-01T00:39:40.286Z,68.8
2019-06-01T00:56:23.241Z,69.6
2019-06-01T01:13:06.139Z,70.0
2019-06-01T01:29:49.004Z,70.4
2019-06-01T01:46:31.314Z,71.2
2019-06-01T02:03:13.354Z,71.6
2019-06-01T02:19:56.075Z,71.6
2019-06-01T02:36:37.315Z,71.6
2019-06-01T02:53:19.146Z,72.0
2019-06-01T03:10:00.933Z,72.8
2019-06-01T03:26:42.803Z,73.6
2019-06-01T03:43:23.429Z,73.6
2019-06-01T04:00:05.065Z,73.6
2019-06-01T04:16:46.995Z,74.0
2019-06-01T04:30:09.492Z,73.6
2019-06-01T04:46:51.959Z,73.2
2019-06-01T05:03:35.101Z,72.8
2019-06-01T05:20:18.376Z,72.4
2019-06-01T05:30:20.479Z,71.6
2019-06-01T05:43:43.754Z,70.8
2019-06-01T05:57:07.390Z,70.0
2019-06-01T06:03:51.865Z,69.2
2019-06-01T06:17:16.227Z,67.6
2019-06-01T06:27:18.576Z,66.8
2019-06-01T06:37:22.134Z,65.6
2019-06-01T06:54:09.723Z,64.0
2019-06-01T07:10:57.583Z,62.8
2019-06-01T07:27:45.877Z,61.6
2019-06-01T07:44:34.391Z,60.8
2019-06-01T08:01:25.164Z,60.0
2019-06-01T08:18:12.679Z,58.4
2019-06-01T08:35:08.417Z,58.0
2019-06-01T08:51:51.978Z,57.6
2019-06-01T09:08:41.924Z,56.8
2019-06-01T09:25:32.255Z,56.4
2019-06-01T09:42:22.764Z,54.8
2019-06-01T09:59:13.617Z,54.0
2019-06-01T10:16:04.555Z,53.6
2019-06-01T10:32:55.663Z,52.8
2019-06-01T10:49:47.236Z,51.2
2019-06-01T11:06:44.910Z,51.6
2019-06-01T11:20:08.828Z,49.6
2019-06-01T11:37:05.557Z,49.2
2019-06-01T22:45:30.267Z,60.8
2019-06-01T23:02:16.735Z,62.4
2019-06-01T23:15:41.907Z,64.8
2019-06-01T23:32:28.492Z,64.8
2019-06-01T23:49:13.239Z,64.8
